createdAt,value
2018-04-27T00:01:32.776Z,0.0
2018-04-27T00:11:47.585Z,0.0
2018-04-27T00:22:35.119Z,0.0
2018-04-27T00:32:50.117Z,0.0
2018-04-27T00:43:03.866Z,0.0
2018-04-27T00:53:17.854Z,0.0
2018-04-27T01:03:32.322Z,0.0
2018-04-27T01:13:45.974Z,0.0
2018-04-27T01:24:00.421Z,0.0
2018-04-27T01:34:15.019Z,0.0
2018-04-27T01:44:27.511Z,0.0
2018-04-27T01:54:42.682Z,0.0
2018-04-27T02:05:29.748Z,0.0
2018-04-27T02:15:44.823Z,0.0
2018-04-27T02:25:59.569Z,0.0
2018-04-27T02:36:19.803Z,0.0
2018-04-27T02:46:34.195Z,0.0
2018-04-27T02:57:20.924Z,0.0
2018-04-27T03:07:42.554Z,0.0
2018-04-27T03:17:57.030Z,0.0
2018-04-27T03:28:09.342Z,0.0
2018-04-27T03:38:54.989Z,0.0
2018-04-27T03:49:40.988Z,12.0
2018-04-27T04:00:56.217Z,48.0
2018-04-27T04:11:50.651Z,144.0
2018-04-27T04:23:01.615Z,308.0
2018-04-27T04:33:42.840Z,540.0
2018-04-27T04:44:12.441Z,844.0
2018-04-27T04:55:04.949Z,1292.0
2018-04-27T05:16:37.511Z,2052.0
2018-04-27T05:27:35.902Z,2380.0
2018-04-27T05:49:13.944Z,3664.0
2018-04-27T05:59:28.499Z,3948.0
2018-04-27T06:09:40.716Z,4816.0
2018-04-27T06:19:54.890Z,5576.0
2018-04-27T06:30:07.389Z,6092.0
2018-04-27T06:40:21.287Z,7008.0
2018-04-27T06:50:35.377Z,7748.0
2018-04-27T07:12:50.320Z,11316.0
2018-04-27T07:33:39.623Z,13912.0
2018-04-27T07:58:11.995Z,17056.0
2018-04-27T08:08:26.476Z,20096.0
2018-04-27T08:18:43.311Z,22912.0
2018-04-27T08:29:09.360Z,23296.0
2018-04-27T08:40:26.758Z,20736.0
2018-04-27T08:53:26.216Z,18496.0
2018-04-27T09:04:04.980Z,17056.0
2018-04-27T09:14:33.868Z,15456.0
2018-04-27T09:24:58.640Z,22496.0
2018-04-27T09:35:36.361Z,41024.0
2018-04-27T09:46:36.180Z,22336.0
2018-04-27T09:56:51.279Z,19040.0
2018-04-27T10:07:51.269Z,26528.0
2018-04-27T10:18:17.519Z,29248.0
2018-04-27T10:28:34.806Z,24736.0
2018-04-27T10:39:04.767Z,36416.0
2018-04-27T11:01:42.414Z,33504.0
2018-04-27T11:22:33.313Z,21568.0
2018-04-27T11:43:13.189Z,20928.0
2018-04-27T11:53:45.674Z,22624.0
2018-04-27T12:16:04.931Z,23840.0
2018-04-27T12:27:04.235Z,33344.0
2018-04-27T13:00:21.612Z,34368.0
2018-04-27T13:12:35.834Z,10656.0
2018-04-27T13:34:27.277Z,9768.0
2018-04-27T14:01:27.710Z,8928.0
2018-04-27T14:11:52.489Z,12204.0
2018-04-27T14:22:13.889Z,11376.0
2018-04-27T14:42:44.047Z,12988.0
2018-04-27T14:52:58.624Z,7884.0
2018-04-27T15:03:12.504Z,10384.0
2018-04-27T15:24:40.137Z,13532.0
2018-04-27T15:35:08.554Z,11164.0
2018-04-27T15:45:22.547Z,7008.0
2018-04-27T16:09:06.149Z,6472.0
2018-04-27T16:44:48.187Z,4736.0
2018-04-27T21:06:57.381Z,0.0
2018-04-27T22:33:04.011Z,0.0
2018-04-27T22:44:53.856Z,0.0
2018-04-27T23:23:28.961Z,0.0
2018-04-27T23:46:48.668Z,0.0
2018-04-27T23:59:14.173Z,0.0
